createdAt,value
2022-12-23T00:00:26.870Z,56.26
2022-12-23T00:02:53.343Z,56.18
2022-12-23T00:05:19.875Z,56.36
2022-12-23T00:07:46.219Z,56.16
2022-12-23T00:10:12.624Z,56.27
2022-12-23T00:12:39.007Z,56.21
2022-12-23T00:15:05.691Z,56.09
2022-12-23T00:17:33.369Z,56.03
2022-12-23T00:20:01.668Z,56.05
2022-12-23T00:22:28.109Z,56.03
2022-12-23T00:24:54.421Z,56.01
2022-12-23T00:27:20.737Z,56.02
2022-12-23T00:29:47.177Z,56.13
2022-12-23T00:32:13.638Z,55.95
2022-12-23T00:34:41.265Z,56.17
2022-12-23T00:37:07.534Z,56.11
2022-12-23T00:39:33.864Z,55.92
2022-12-23T00:42:00.154Z,56.01
2022-12-23T00:44:26.772Z,55.95
2022-12-23T00:46:53.127Z,56.03
2022-12-23T00:49:19.934Z,56.09
2022-12-23T00:51:47.619Z,55.93
2022-12-23T00:54:14.163Z,55.88
2022-12-23T00:56:40.484Z,55.82
2022-12-23T00:59:06.812Z,55.83
2022-12-23T01:01:33.432Z,55.84
2022-12-23T01:03:59.828Z,55.82
2022-12-23T01:06:26.202Z,55.87
2022-12-23T01:08:53.918Z,55.95
2022-12-23T01:11:20.221Z,55.75
2022-12-23T01:13:46.621Z,56.02
2022-12-23T01:16:17.130Z,55.76
2022-12-23T01:18:44.228Z,55.62
2022-12-23T01:21:10.685Z,55.88
2022-12-23T01:23:37.287Z,55.65
2022-12-23T01:26:06.334Z,55.74
2022-12-23T01:28:33.016Z,55.88
2022-12-23T01:31:00.196Z,55.76
2022-12-23T01:33:26.704Z,55.89
2022-12-23T01:35:59.157Z,55.67
2022-12-23T01:38:25.492Z,55.81
2022-12-23T01:40:51.910Z,55.88
2022-12-23T01:43:20.409Z,56.03
2022-12-23T01:45:47.104Z,55.78
2022-12-23T01:48:15.721Z,55.72
2022-12-23T01:50:44.583Z,55.75
2022-12-23T01:53:13.764Z,55.74
2022-12-23T01:55:43.529Z,55.71
2022-12-23T01:58:11.945Z,55.89
2022-12-23T02:00:40.818Z,55.90
2022-12-23T02:03:07.286Z,55.81
2022-12-23T02:05:34.616Z,55.82
2022-12-23T02:08:01.110Z,55.60
2022-12-23T02:10:36.563Z,55.62
2022-12-23T02:13:08.203Z,55.86
2022-12-23T02:15:38.770Z,55.75
2022-12-23T02:18:10.806Z,55.72
2022-12-23T02:20:52.774Z,55.80
2022-12-23T02:23:33.541Z,55.73
2022-12-23T02:26:12.011Z,55.65
2022-12-23T02:28:48.228Z,55.72
2022-12-23T02:31:21.717Z,55.86
2022-12-23T02:33:54.723Z,55.96
2022-12-23T02:36:27.521Z,55.95
2022-12-23T02:38:59.463Z,55.77
2022-12-23T02:41:29.917Z,55.89
2022-12-23T02:43:59.479Z,55.94
2022-12-23T02:46:30.974Z,55.85
2022-12-23T02:48:59.689Z,55.89
2022-12-23T02:51:29.064Z,55.89
2022-12-23T02:53:57.280Z,56.07
2022-12-23T02:56:25.393Z,55.76
2022-12-23T02:58:54.504Z,55.95
2022-12-23T03:01:21.090Z,55.91
2022-12-23T03:03:49.461Z,56.09
2022-12-23T03:06:19.425Z,55.93
2022-12-23T03:08:46.065Z,56.09
2022-12-23T03:11:14.329Z,56.06
2022-12-23T03:13:48.511Z,55.94
2022-12-23T03:16:20.716Z,56.14
2022-12-23T03:18:55.433Z,56.27
2022-12-23T03:21:24.425Z,56.28
2022-12-23T03:23:55.706Z,56.19
2022-12-23T03:26:23.307Z,56.43
2022-12-23T03:28:54.131Z,55.99
2022-12-23T03:31:29.773Z,56.16
2022-12-23T03:33:59.327Z,56.25
2022-12-23T03:36:28.311Z,56.09
2022-12-23T03:38:55.931Z,56.13
2022-12-23T03:41:24.859Z,56.28
2022-12-23T03:43:54.568Z,56.12
2022-12-23T03:46:25.298Z,56.26
2022-12-23T03:48:53.453Z,56.22
2022-12-23T03:51:23.961Z,56.23
2022-12-23T03:53:51.973Z,56.15
2022-12-23T03:56:20.223Z,56.19
2022-12-23T03:58:49.657Z,56.09
2022-12-23T04:01:18.939Z,56.16
2022-12-23T04:03:51.687Z,56.33
2022-12-23T04:06:19.676Z,56.23
2022-12-23T04:08:48.393Z,56.29
2022-12-23T04:11:15.080Z,56.30
2022-12-23T04:13:41.413Z,56.29
2022-12-23T04:16:08.030Z,56.25
2022-12-23T04:18:34.493Z,56.06
2022-12-23T04:21:00.841Z,56.27
2022-12-23T04:23:27.168Z,56.38
2022-12-23T04:25:54.805Z,56.33
2022-12-23T04:28:21.085Z,56.20
2022-12-23T04:30:47.432Z,56.38
2022-12-23T04:33:13.840Z,56.15
2022-12-23T04:35:40.251Z,56.36
2022-12-23T04:38:07.322Z,56.28
2022-12-23T04:40:33.649Z,56.05
2022-12-23T04:43:01.378Z,56.39
2022-12-23T04:45:27.719Z,56.34
2022-12-23T04:47:54.032Z,56.58
2022-12-23T04:50:20.508Z,56.48
2022-12-23T04:52:46.840Z,56.28
2022-12-23T04:55:13.114Z,56.27
2022-12-23T04:57:39.431Z,56.32
2022-12-23T05:00:07.746Z,56.53
2022-12-23T05:02:34.118Z,56.66
2022-12-23T05:05:00.525Z,56.41
2022-12-23T05:07:26.837Z,56.48
2022-12-23T05:09:53.291Z,56.62
2022-12-23T05:12:19.624Z,56.59
2022-12-23T05:14:46.112Z,56.40
2022-12-23T05:17:13.679Z,56.54
2022-12-23T05:19:39.957Z,56.75
2022-12-23T05:22:06.286Z,56.63
2022-12-23T05:24:32.617Z,56.61
2022-12-23T05:27:00.295Z,56.79
2022-12-23T05:29:26.862Z,56.70
2022-12-23T05:31:53.263Z,56.69
2022-12-23T05:34:21.118Z,56.61
2022-12-23T05:36:47.569Z,56.71
2022-12-23T05:39:13.939Z,56.58
2022-12-23T05:41:40.379Z,56.46
2022-12-23T05:44:06.667Z,56.71
2022-12-23T05:46:33.210Z,56.67
2022-12-23T05:48:59.555Z,56.84
2022-12-23T05:51:27.152Z,56.98
2022-12-23T05:53:53.481Z,56.74
2022-12-23T05:56:19.782Z,56.71
2022-12-23T05:58:46.105Z,56.69
2022-12-23T06:01:12.443Z,56.87
2022-12-23T06:03:38.936Z,56.73
2022-12-23T06:06:05.617Z,56.60
2022-12-23T06:08:33.247Z,56.70
2022-12-23T06:10:59.571Z,56.83
2022-12-23T06:13:26.009Z,56.82
2022-12-23T06:15:52.342Z,56.59
2022-12-23T06:18:18.726Z,56.69
2022-12-23T06:20:45.400Z,56.92
2022-12-23T06:23:11.697Z,56.78
2022-12-23T06:25:39.402Z,56.81
2022-12-23T06:28:05.709Z,56.81
2022-12-23T06:30:32.049Z,57.01
2022-12-23T06:32:58.345Z,56.75
2022-12-23T06:35:24.693Z,57.05
2022-12-23T06:37:52.670Z,56.82
2022-12-23T06:40:18.973Z,56.70
2022-12-23T06:42:46.594Z,56.90
2022-12-23T06:45:13.111Z,56.86
2022-12-23T06:47:39.429Z,56.92
2022-12-23T06:50:06.371Z,56.91
2022-12-23T06:52:32.695Z,56.71
2022-12-23T06:54:59.060Z,56.75
2022-12-23T06:57:25.354Z,56.83
2022-12-23T06:59:52.976Z,56.87
2022-12-23T07:02:19.545Z,56.79
2022-12-23T07:04:46.076Z,56.88
2022-12-23T07:07:12.418Z,56.77
2022-12-23T07:09:38.759Z,56.92
2022-12-23T07:12:05.390Z,56.89
2022-12-23T07:14:31.714Z,56.88
2022-12-23T07:16:59.571Z,57.01
2022-12-23T07:19:25.912Z,56.84
2022-12-23T07:21:52.334Z,57.02
2022-12-23T07:24:18.739Z,57.26
2022-12-23T07:26:45.025Z,56.98
2022-12-23T07:29:11.350Z,57.03
2022-12-23T07:31:40.958Z,57.19
2022-12-23T07:34:09.106Z,57.08
2022-12-23T07:36:35.552Z,57.18
2022-12-23T07:39:01.913Z,56.97
2022-12-23T07:41:28.244Z,57.21
2022-12-23T07:43:54.539Z,56.83
2022-12-23T07:46:21.142Z,56.87
2022-12-23T07:48:47.492Z,57.31
2022-12-23T07:51:15.106Z,57.32
2022-12-23T07:53:41.585Z,57.18
2022-12-23T07:56:08.319Z,57.20
2022-12-23T07:58:34.687Z,56.75
2022-12-23T08:01:01.306Z,57.25
2022-12-23T08:03:27.811Z,57.42
2022-12-23T08:05:58.919Z,57.11
2022-12-23T08:08:26.876Z,57.42
2022-12-23T08:10:56.487Z,57.22
2022-12-23T08:13:22.792Z,57.37
2022-12-23T08:15:49.107Z,57.24
2022-12-23T08:18:15.459Z,57.17
2022-12-23T08:20:41.764Z,57.18
2022-12-23T08:23:08.111Z,57.33
2022-12-23T08:25:35.865Z,57.09
2022-12-23T08:28:02.196Z,57.18
2022-12-23T08:30:28.636Z,57.16
2022-12-23T08:32:55.049Z,57.17
2022-12-23T08:35:21.333Z,57.32
2022-12-23T08:37:47.667Z,57.08
2022-12-23T08:40:14.132Z,57.41
2022-12-23T08:42:41.820Z,57.29
2022-12-23T08:45:08.429Z,57.13
2022-12-23T08:47:34.774Z,57.34
2022-12-23T08:50:01.107Z,57.13
2022-12-23T08:52:27.895Z,57.23
2022-12-23T08:54:54.225Z,57.31
2022-12-23T08:57:20.608Z,57.22
2022-12-23T08:59:48.262Z,57.42
2022-12-23T09:02:14.790Z,57.31
2022-12-23T09:04:41.338Z,57.23
2022-12-23T09:07:07.657Z,57.39
2022-12-23T09:09:33.994Z,57.25
2022-12-23T09:12:00.400Z,57.23
2022-12-23T09:14:26.793Z,57.41
2022-12-23T09:16:54.318Z,57.28
2022-12-23T09:19:20.633Z,57.35
2022-12-23T09:21:46.988Z,57.32
2022-12-23T09:24:13.283Z,57.29
2022-12-23T09:26:39.711Z,57.15
2022-12-23T09:29:06.155Z,57.37
2022-12-23T09:31:36.813Z,56.97
2022-12-23T09:34:05.567Z,57.17
2022-12-23T09:36:31.927Z,57.38
2022-12-23T09:38:58.465Z,57.23
2022-12-23T09:41:32.147Z,57.04
2022-12-23T09:44:07.819Z,57.17
2022-12-23T09:46:38.149Z,57.22
2022-12-23T09:49:09.129Z,57.28
2022-12-23T09:51:35.550Z,57.17
2022-12-23T09:54:05.099Z,56.99
2022-12-23T09:56:37.749Z,57.22
2022-12-23T09:59:08.955Z,57.15
2022-12-23T10:01:43.008Z,57.31
2022-12-23T10:04:30.727Z,57.38
2022-12-23T10:07:12.612Z,57.41
2022-12-23T10:09:41.163Z,57.37
2022-12-23T10:12:13.441Z,57.40
2022-12-23T10:14:40.664Z,57.10
2022-12-23T10:17:11.905Z,57.16
2022-12-23T10:19:42.193Z,57.07
2022-12-23T10:22:11.801Z,57.33
2022-12-23T10:24:39.630Z,57.31
2022-12-23T10:27:13.301Z,57.25
2022-12-23T10:29:40.624Z,57.08
2022-12-23T10:32:17.547Z,57.45
2022-12-23T10:34:51.465Z,57.29
2022-12-23T10:37:22.813Z,56.97
2022-12-23T10:39:55.183Z,57.17
2022-12-23T10:42:25.295Z,57.06
2022-12-23T10:45:05.034Z,57.02
2022-12-23T10:47:36.531Z,57.08
2022-12-23T10:50:14.449Z,57.34
2022-12-23T10:52:42.656Z,57.28
2022-12-23T10:55:15.875Z,56.99
2022-12-23T10:57:42.278Z,57.21
2022-12-23T11:00:15.687Z,56.94
2022-12-23T11:02:47.238Z,57.01
2022-12-23T11:05:17.709Z,56.92
2022-12-23T11:07:45.961Z,57.08
2022-12-23T11:10:15.499Z,56.93
2022-12-23T11:12:43.144Z,57.11
2022-12-23T11:15:19.252Z,57.16
2022-12-23T11:17:57.153Z,56.93
2022-12-23T11:20:24.820Z,57.04
2022-12-23T11:22:51.940Z,57.00
2022-12-23T11:25:27.797Z,56.70
2022-12-23T11:27:56.091Z,57.21
2022-12-23T11:30:22.589Z,57.06
2022-12-23T11:32:49.545Z,56.74
2022-12-23T11:35:23.795Z,56.71
2022-12-23T11:37:51.725Z,57.07
2022-12-23T11:40:22.697Z,57.02
2022-12-23T11:42:55.230Z,56.87
2022-12-23T11:45:23.162Z,56.99
2022-12-23T11:47:49.476Z,56.92
2022-12-23T11:50:25.647Z,56.59
2022-12-23T11:52:54.882Z,56.80
2022-12-23T11:55:23.420Z,56.85
2022-12-23T11:57:50.574Z,56.69
2022-12-23T12:00:18.712Z,56.88
2022-12-23T12:02:46.153Z,56.92
2022-12-23T12:05:18.110Z,56.75
2022-12-23T12:07:44.945Z,56.84
2022-12-23T12:10:16.966Z,56.85
2022-12-23T12:12:43.554Z,56.59
2022-12-23T12:15:20.848Z,56.88
2022-12-23T12:17:49.053Z,56.90
2022-12-23T12:20:21.586Z,56.73
2022-12-23T12:22:49.970Z,56.76
2022-12-23T12:25:19.459Z,56.64
2022-12-23T12:27:49.802Z,56.69
2022-12-23T12:30:18.424Z,56.81
2022-12-23T12:32:48.557Z,56.61
2022-12-23T12:35:16.813Z,56.71
2022-12-23T12:37:48.064Z,56.75
2022-12-23T12:40:22.114Z,56.75
2022-12-23T12:42:52.508Z,56.56
2022-12-23T12:45:20.709Z,56.92
2022-12-23T12:47:54.470Z,56.57
2022-12-23T12:50:26.682Z,56.69
2022-12-23T12:52:55.255Z,56.43
2022-12-23T12:55:24.977Z,56.63
2022-12-23T12:57:52.586Z,56.44
2022-12-23T13:00:20.721Z,56.60
2022-12-23T13:02:57.095Z,56.54
2022-12-23T13:05:27.749Z,56.50
2022-12-23T13:08:01.011Z,56.44
2022-12-23T13:10:34.203Z,56.57
2022-12-23T13:13:05.422Z,56.34
2022-12-23T13:15:34.012Z,56.47
2022-12-23T13:18:09.822Z,56.55
2022-12-23T13:20:39.361Z,56.42
2022-12-23T13:23:41.828Z,56.48
2022-12-23T13:26:02.319Z,56.36
2022-12-23T13:28:36.226Z,56.30
2022-12-23T13:31:10.502Z,56.41
2022-12-23T13:33:46.228Z,56.45
2022-12-23T13:36:21.079Z,56.40
2022-12-23T13:38:57.276Z,56.22
2022-12-23T13:41:28.222Z,56.30
2022-12-23T13:43:57.399Z,56.26
2022-12-23T13:46:27.073Z,56.43
2022-12-23T13:48:59.403Z,56.14
2022-12-23T13:51:29.835Z,56.19
2022-12-23T13:54:04.448Z,56.29
2022-12-23T13:56:36.200Z,56.24
2022-12-23T13:59:08.584Z,56.31
2022-12-23T14:01:36.319Z,56.35
2022-12-23T14:04:12.712Z,56.26
2022-12-23T14:06:43.649Z,56.01
2022-12-23T14:09:14.154Z,56.14
2022-12-23T14:11:40.510Z,56.01
2022-12-23T14:14:17.957Z,56.04
2022-12-23T14:16:49.290Z,56.15
2022-12-23T14:19:30.717Z,56.04
2022-12-23T14:22:03.459Z,55.96
2022-12-23T14:24:42.231Z,55.86
2022-12-23T14:27:17.159Z,56.01
2022-12-23T14:29:50.819Z,56.20
2022-12-23T14:32:19.551Z,55.89
2022-12-23T14:35:00.873Z,56.15
2022-12-23T14:37:35.041Z,55.90
2022-12-23T14:40:16.340Z,55.86
2022-12-23T14:42:43.476Z,55.91
2022-12-23T14:45:24.693Z,55.77
2022-12-23T14:47:52.322Z,55.71
2022-12-23T14:50:29.186Z,55.77
2022-12-23T14:52:59.512Z,55.75
2022-12-23T14:55:35.725Z,55.68
2022-12-23T14:58:07.845Z,55.47
2022-12-23T15:00:44.614Z,55.53
2022-12-23T15:03:12.424Z,55.54
2022-12-23T15:05:39.857Z,55.59
2022-12-23T15:08:18.235Z,55.44
2022-12-23T15:10:44.612Z,55.54
2022-12-23T15:13:13.967Z,55.30
2022-12-23T15:15:53.504Z,55.37
2022-12-23T15:18:23.621Z,55.30
2022-12-23T15:20:57.704Z,55.42
2022-12-23T15:23:24.132Z,55.26
2022-12-23T15:25:50.508Z,55.30
2022-12-23T15:28:19.169Z,55.34
2022-12-23T15:30:47.057Z,55.32
2022-12-23T15:33:52.008Z,55.19
2022-12-23T15:36:05.626Z,55.09
2022-12-23T15:38:34.934Z,55.07
2022-12-23T15:41:02.226Z,55.16
2022-12-23T15:43:28.614Z,54.95
2022-12-23T15:45:55.097Z,55.10
2022-12-23T15:48:23.768Z,55.14
2022-12-23T15:50:51.283Z,54.95
2022-12-23T15:53:19.118Z,55.05
2022-12-23T15:55:47.045Z,55.01
2022-12-23T15:58:18.164Z,55.03
2022-12-23T16:00:50.785Z,54.97
2022-12-23T16:03:22.887Z,55.08
2022-12-23T16:05:49.337Z,54.90
2022-12-23T16:08:28.607Z,54.99
2022-12-23T16:10:57.720Z,54.82
2022-12-23T16:13:24.097Z,54.91
2022-12-23T16:15:50.509Z,54.94
2022-12-23T16:18:20.617Z,54.91
2022-12-23T16:20:48.610Z,54.74
2022-12-23T16:23:15.959Z,54.85
2022-12-23T16:25:50.225Z,54.74
2022-12-23T16:28:18.670Z,54.74
2022-12-23T16:30:46.709Z,54.78
2022-12-23T16:33:23.546Z,54.73
2022-12-23T16:35:49.967Z,54.55
2022-12-23T16:38:17.213Z,54.70
2022-12-23T16:40:44.642Z,54.70
2022-12-23T16:43:12.337Z,54.58
2022-12-23T16:45:39.366Z,54.48
2022-12-23T16:48:09.576Z,54.46
2022-12-23T16:50:35.918Z,54.58
2022-12-23T16:53:02.217Z,54.48
2022-12-23T16:55:28.602Z,54.55
2022-12-23T16:57:54.935Z,54.44
2022-12-23T17:00:22.534Z,54.38
2022-12-23T17:02:49.019Z,54.51
2022-12-23T17:05:16.085Z,54.56
2022-12-23T17:07:45.434Z,54.50
2022-12-23T17:10:12.908Z,54.35
2022-12-23T17:12:39.400Z,54.41
2022-12-23T17:15:06.672Z,54.34
2022-12-23T17:17:35.594Z,54.30
2022-12-23T17:20:01.907Z,54.55
2022-12-23T17:22:28.435Z,54.39
2022-12-23T17:24:54.742Z,54.42
2022-12-23T17:27:21.160Z,54.45
2022-12-23T17:29:47.517Z,54.31
2022-12-23T17:32:16.560Z,54.36
2022-12-23T17:34:44.196Z,54.36
2022-12-23T17:37:12.993Z,54.38
2022-12-23T17:39:39.326Z,54.35
2022-12-23T17:42:05.692Z,54.42
2022-12-23T17:44:32.119Z,54.18
2022-12-23T17:46:58.432Z,54.32
2022-12-23T17:49:24.725Z,54.35
2022-12-23T17:51:52.348Z,54.34
2022-12-23T17:54:21.596Z,54.26
2022-12-23T17:56:47.926Z,54.33
2022-12-23T17:59:14.821Z,54.10
2022-12-23T18:01:41.266Z,54.27
2022-12-23T18:04:07.996Z,54.13
2022-12-23T18:06:34.311Z,54.21
2022-12-23T18:09:01.979Z,54.21
2022-12-23T18:11:30.918Z,54.18
2022-12-23T18:13:57.303Z,54.02
2022-12-23T18:16:23.813Z,54.11
2022-12-23T18:18:50.175Z,54.13
2022-12-23T18:21:19.661Z,54.04
2022-12-23T18:23:46.037Z,54.12
2022-12-23T18:26:14.444Z,53.97
2022-12-23T18:28:41.066Z,54.04
2022-12-23T18:31:13.611Z,54.01
2022-12-23T18:33:39.973Z,54.12
2022-12-23T18:36:06.493Z,53.92
2022-12-23T18:38:32.879Z,54.04
2022-12-23T18:40:59.190Z,53.90
2022-12-23T18:43:26.827Z,53.90
2022-12-23T18:45:54.274Z,53.91
2022-12-23T18:48:21.027Z,54.05
2022-12-23T18:50:47.419Z,53.94
2022-12-23T18:53:21.316Z,54.06
2022-12-23T18:55:50.115Z,53.86
2022-12-23T18:58:16.473Z,53.90
2022-12-23T19:00:44.688Z,53.66
2022-12-23T19:03:19.710Z,53.96
2022-12-23T19:05:46.990Z,53.98
2022-12-23T19:08:13.270Z,53.89
2022-12-23T19:10:39.584Z,53.96
2022-12-23T19:13:05.859Z,53.81
2022-12-23T19:15:32.182Z,53.67
2022-12-23T19:17:59.876Z,53.79
2022-12-23T19:20:26.260Z,53.97
2022-12-23T19:22:52.580Z,53.84
2022-12-23T19:25:19.047Z,53.96
2022-12-23T19:27:45.926Z,53.87
2022-12-23T19:30:13.232Z,53.85
2022-12-23T19:32:39.572Z,54.02
2022-12-23T19:35:07.813Z,53.96
2022-12-23T19:37:34.285Z,53.76
2022-12-23T19:40:00.642Z,53.75
2022-12-23T19:42:26.967Z,53.81
2022-12-23T19:44:53.304Z,53.92
2022-12-23T19:47:19.615Z,54.01
2022-12-23T19:49:45.913Z,53.91
2022-12-23T19:52:13.714Z,53.72
2022-12-23T19:54:40.043Z,53.76
2022-12-23T19:57:06.390Z,53.85
2022-12-23T19:59:32.755Z,53.79
2022-12-23T20:01:59.204Z,53.74
2022-12-23T20:04:25.602Z,53.92
2022-12-23T20:06:52.280Z,54.08
2022-12-23T20:09:19.933Z,54.00
2022-12-23T20:11:47.486Z,54.00
2022-12-23T20:14:14.619Z,53.89
2022-12-23T20:16:41.260Z,53.84
2022-12-23T20:19:07.613Z,53.77
2022-12-23T20:21:34.470Z,53.91
2022-12-23T20:24:00.983Z,53.92
2022-12-23T20:26:28.640Z,53.80
2022-12-23T20:28:55.105Z,53.92
2022-12-23T20:31:22.707Z,53.73
2022-12-23T20:33:49.800Z,53.93
2022-12-23T20:36:16.934Z,53.79
2022-12-23T20:38:44.480Z,53.91
2022-12-23T20:41:11.990Z,53.70
2022-12-23T20:43:39.858Z,53.87
2022-12-23T20:46:07.498Z,53.95
2022-12-23T20:48:34.740Z,53.97
2022-12-23T20:51:03.431Z,53.93
2022-12-23T20:53:29.848Z,53.70
2022-12-23T20:55:58.894Z,53.83
2022-12-23T20:58:25.230Z,53.74
2022-12-23T21:00:52.931Z,53.82
2022-12-23T21:03:19.337Z,53.90
2022-12-23T21:05:45.690Z,54.03
2022-12-23T21:08:12.338Z,53.82
2022-12-23T21:10:38.739Z,53.65
2022-12-23T21:13:05.592Z,53.83
2022-12-23T21:15:32.404Z,53.77
2022-12-23T21:18:00.033Z,53.82
2022-12-23T21:20:26.443Z,53.91
2022-12-23T21:22:52.762Z,53.69
2022-12-23T21:25:19.142Z,53.78
2022-12-23T21:27:45.639Z,53.76
2022-12-23T21:30:12.180Z,53.96
2022-12-23T21:32:38.499Z,53.83
2022-12-23T21:35:06.559Z,53.71
2022-12-23T21:37:32.900Z,53.77
2022-12-23T21:39:59.188Z,53.85
2022-12-23T21:42:25.559Z,53.68
2022-12-23T21:44:51.886Z,53.74
2022-12-23T21:47:18.273Z,53.85
2022-12-23T21:49:44.637Z,53.72
2022-12-23T21:52:12.299Z,53.80
2022-12-23T21:54:38.653Z,53.76
2022-12-23T21:57:04.966Z,53.85
2022-12-23T21:59:35.155Z,53.77
2022-12-23T22:02:01.992Z,53.26
2022-12-23T22:04:28.538Z,53.64
2022-12-23T22:06:54.866Z,53.51
2022-12-23T22:09:22.547Z,53.80
2022-12-23T22:11:48.854Z,53.79
2022-12-23T22:14:16.796Z,53.79
2022-12-23T22:16:43.214Z,53.56
2022-12-23T22:19:10.860Z,53.69
2022-12-23T22:21:38.205Z,53.71
2022-12-23T22:24:05.156Z,53.60
2022-12-23T22:26:33.226Z,53.79
2022-12-23T22:29:00.930Z,53.74
2022-12-23T22:31:30.543Z,53.75
2022-12-23T22:33:56.960Z,53.68
2022-12-23T22:36:23.284Z,53.63
2022-12-23T22:38:51.363Z,53.77
2022-12-23T22:41:17.769Z,53.74
2022-12-23T22:43:45.427Z,53.73
2022-12-23T22:46:12.450Z,53.69
2022-12-23T22:48:39.081Z,53.69
2022-12-23T22:51:06.431Z,53.58
2022-12-23T22:53:32.974Z,53.65
2022-12-23T22:55:59.330Z,53.79
2022-12-23T22:58:26.136Z,53.78
2022-12-23T23:00:53.807Z,53.58
2022-12-23T23:03:20.461Z,53.58
2022-12-23T23:05:55.333Z,53.78
2022-12-23T23:08:21.715Z,53.73
2022-12-23T23:10:48.034Z,53.66
2022-12-23T23:13:14.340Z,53.67
2022-12-23T23:15:40.692Z,53.65
2022-12-23T23:18:08.393Z,53.72
2022-12-23T23:20:34.706Z,53.62
2022-12-23T23:23:01.012Z,53.60
2022-12-23T23:25:27.335Z,53.78
2022-12-23T23:27:53.670Z,53.58
2022-12-23T23:30:19.983Z,53.60
2022-12-23T23:32:46.486Z,53.70
2022-12-23T23:35:14.406Z,53.65
2022-12-23T23:37:40.738Z,53.76
2022-12-23T23:40:07.493Z,53.55
2022-12-23T23:42:33.777Z,53.57
2022-12-23T23:45:00.193Z,53.61
2022-12-23T23:47:26.541Z,53.66
2022-12-23T23:49:52.974Z,53.70
2022-12-23T23:52:20.809Z,53.50
2022-12-23T23:54:47.102Z,53.76
2022-12-23T23:57:13.478Z,53.50
2022-12-23T23:59:39.807Z,53.77
